createdAt,value
2019-03-19T00:00:31.250Z,0
2019-03-19T00:01:41.164Z,0
2019-03-19T00:02:51.138Z,0
2019-03-19T00:04:01.056Z,0
2019-03-19T00:05:10.977Z,0
2019-03-19T00:06:20.905Z,0
2019-03-19T00:07:30.819Z,0
2019-03-19T00:08:40.740Z,0
2019-03-19T00:09:50.662Z,0
2019-03-19T00:11:00.590Z,0
2019-03-19T00:12:10.560Z,0
2019-03-19T00:13:20.483Z,0
2019-03-19T00:14:30.403Z,0
2019-03-19T00:15:40.337Z,0
2019-03-19T00:16:50.249Z,0
2019-03-19T00:18:00.172Z,0
2019-03-19T00:19:10.104Z,0
2019-03-19T00:20:20.061Z,0
2019-03-19T00:21:29.991Z,0
2019-03-19T00:22:39.910Z,0
2019-03-19T00:23:49.830Z,0
2019-03-19T00:24:59.760Z,0
2019-03-19T00:26:09.682Z,0
2019-03-19T00:27:19.595Z,0
2019-03-19T00:28:29.515Z,0
2019-03-19T00:29:39.500Z,0
2019-03-19T00:30:49.419Z,0
2019-03-19T00:31:59.335Z,0
2019-03-19T00:33:09.255Z,0
2019-03-19T00:34:19.166Z,0
2019-03-19T00:35:29.219Z,0
2019-03-19T00:36:39.140Z,0
2019-03-19T00:37:49.061Z,0
2019-03-19T00:38:58.982Z,0
2019-03-19T00:40:08.910Z,0
2019-03-19T00:41:18.863Z,0
2019-03-19T00:42:28.780Z,0
2019-03-19T00:43:38.703Z,0
2019-03-19T00:44:48.366Z,0
2019-03-19T00:45:58.278Z,0
2019-03-19T00:47:08.290Z,0
2019-03-19T00:48:18.208Z,0
2019-03-19T00:49:28.122Z,0
2019-03-19T00:50:38.039Z,0
2019-03-19T00:51:47.999Z,0
2019-03-19T00:52:57.917Z,0
2019-03-19T00:54:07.579Z,0
2019-03-19T00:55:17.497Z,0
2019-03-19T00:56:27.412Z,0
2019-03-19T00:57:37.327Z,0
2019-03-19T00:58:47.237Z,0
2019-03-19T00:59:57.149Z,0
2019-03-19T01:01:07.070Z,0
2019-03-19T01:02:17.002Z,0
2019-03-19T01:03:26.921Z,0
2019-03-19T01:04:36.909Z,0
2019-03-19T01:05:46.827Z,0
2019-03-19T01:06:56.744Z,0
2019-03-19T01:08:06.418Z,0
2019-03-19T01:09:16.337Z,0
2019-03-19T01:10:26.256Z,0
2019-03-19T01:11:36.187Z,0
2019-03-19T01:12:46.113Z,0
2019-03-19T01:13:56.029Z,0
2019-03-19T01:15:05.948Z,0
2019-03-19T01:16:15.963Z,0
2019-03-19T01:17:25.890Z,0
2019-03-19T01:18:35.803Z,0
2019-03-19T01:19:45.718Z,0
2019-03-19T01:20:55.635Z,0
2019-03-19T01:22:05.619Z,0
2019-03-19T01:23:15.550Z,0
2019-03-19T01:24:25.616Z,0
2019-03-19T01:25:35.537Z,0
2019-03-19T01:26:45.455Z,0
2019-03-19T01:27:55.375Z,0
2019-03-19T01:29:05.307Z,0
2019-03-19T01:30:15.225Z,0
2019-03-19T01:31:25.142Z,0
2019-03-19T01:32:35.080Z,0
2019-03-19T01:33:45.102Z,0
2019-03-19T01:34:55.041Z,0
2019-03-19T01:36:04.953Z,0
2019-03-19T01:37:14.622Z,0
2019-03-19T01:38:24.538Z,0
2019-03-19T01:39:34.508Z,0
2019-03-19T01:40:44.422Z,0
2019-03-19T01:41:54.363Z,0
2019-03-19T01:43:04.329Z,0
2019-03-19T01:44:14.242Z,0
2019-03-19T01:45:24.358Z,0
2019-03-19T01:46:34.272Z,0
2019-03-19T01:47:44.201Z,0
2019-03-19T01:48:54.121Z,0
2019-03-19T01:50:04.044Z,0
2019-03-19T01:51:13.959Z,0
2019-03-19T01:52:23.917Z,0
2019-03-19T01:53:33.832Z,0
2019-03-19T01:54:43.755Z,0
2019-03-19T01:56:01.096Z,0
2019-03-19T01:57:14.690Z,0
2019-03-19T01:58:24.617Z,0
2019-03-19T01:59:34.534Z,0
2019-03-19T02:00:44.526Z,0
2019-03-19T02:01:54.445Z,0
2019-03-19T02:03:04.460Z,0
2019-03-19T02:04:14.384Z,0
2019-03-19T02:05:24.303Z,0
2019-03-19T02:06:34.212Z,0
2019-03-19T02:07:44.128Z,0
2019-03-19T02:08:54.050Z,0
2019-03-19T02:10:03.967Z,0
2019-03-19T02:11:13.886Z,0
2019-03-19T02:12:23.806Z,0
2019-03-19T02:13:33.724Z,0
2019-03-19T02:14:43.692Z,0
2019-03-19T02:15:53.609Z,0
2019-03-19T02:17:03.524Z,0
2019-03-19T02:18:13.456Z,0
2019-03-19T02:19:23.376Z,0
2019-03-19T02:20:33.395Z,0
2019-03-19T02:21:43.315Z,0
2019-03-19T02:22:53.251Z,0
2019-03-19T02:24:03.182Z,0
2019-03-19T02:25:13.101Z,0
2019-03-19T02:26:24.283Z,0
2019-03-19T02:27:34.216Z,0
2019-03-19T02:28:44.136Z,0
2019-03-19T02:29:54.059Z,0
2019-03-19T02:31:04.007Z,0
2019-03-19T02:32:14.056Z,0
2019-03-19T02:33:23.998Z,0
2019-03-19T02:34:33.954Z,0
2019-03-19T02:35:43.918Z,0
2019-03-19T02:36:53.866Z,0
2019-03-19T02:38:03.944Z,0
2019-03-19T02:39:13.914Z,0
2019-03-19T02:40:23.855Z,0
2019-03-19T02:41:33.830Z,0
2019-03-19T02:42:43.796Z,0
2019-03-19T02:43:53.742Z,0
2019-03-19T02:45:03.710Z,0
2019-03-19T02:46:13.649Z,0
2019-03-19T02:47:23.607Z,0
2019-03-19T02:48:33.537Z,0
2019-03-19T02:49:43.573Z,0
2019-03-19T02:50:53.501Z,0
2019-03-19T02:52:03.434Z,0
2019-03-19T02:53:13.371Z,0
2019-03-19T02:54:23.297Z,0
2019-03-19T02:55:33.298Z,0
2019-03-19T02:56:43.221Z,0
2019-03-19T02:57:53.168Z,0
2019-03-19T02:59:03.092Z,0
2019-03-19T03:00:13.077Z,0
2019-03-19T03:01:23.017Z,0
2019-03-19T03:02:32.939Z,0
2019-03-19T03:03:42.869Z,0
2019-03-19T03:04:52.813Z,0
2019-03-19T03:06:02.735Z,0
2019-03-19T03:07:12.834Z,0
2019-03-19T03:08:22.821Z,0
2019-03-19T03:09:32.778Z,0
2019-03-19T03:10:42.736Z,0
2019-03-19T03:11:52.664Z,0
2019-03-19T03:13:02.589Z,0
2019-03-19T03:14:12.546Z,0
2019-03-19T03:15:22.492Z,0
2019-03-19T03:16:32.429Z,0
2019-03-19T03:17:42.378Z,0
2019-03-19T03:18:52.420Z,0
2019-03-19T03:20:02.357Z,0
2019-03-19T03:21:12.055Z,0
2019-03-19T03:22:21.761Z,0
2019-03-19T03:23:31.711Z,0
2019-03-19T03:24:41.700Z,0
2019-03-19T03:25:51.628Z,0
2019-03-19T03:27:04.558Z,0
2019-03-19T03:28:14.507Z,0
2019-03-19T03:29:24.529Z,0
2019-03-19T03:30:34.285Z,0
2019-03-19T03:31:44.029Z,0
2019-03-19T03:32:54.043Z,0
2019-03-19T03:34:04.011Z,0
2019-03-19T03:35:14.016Z,0
2019-03-19T03:36:24.065Z,0
2019-03-19T03:37:34.002Z,0
2019-03-19T03:38:44.045Z,0
2019-03-19T03:39:53.972Z,0
2019-03-19T03:41:03.908Z,0
2019-03-19T03:42:13.885Z,0
2019-03-19T03:43:23.827Z,0
2019-03-19T03:44:33.761Z,0
2019-03-19T03:45:43.699Z,0
2019-03-19T03:46:53.620Z,0
2019-03-19T03:48:03.580Z,0
2019-03-19T03:49:13.260Z,0
2019-03-19T03:50:22.940Z,0
2019-03-19T03:51:32.871Z,0
2019-03-19T03:52:42.791Z,0
2019-03-19T03:53:52.829Z,0
2019-03-19T03:55:02.883Z,0
2019-03-19T03:56:12.815Z,0
2019-03-19T03:57:22.747Z,0
2019-03-19T03:58:32.688Z,0
2019-03-19T03:59:42.661Z,0
2019-03-19T04:00:52.605Z,0
2019-03-19T04:02:02.354Z,0
2019-03-19T04:03:12.289Z,0
2019-03-19T04:04:22.205Z,0
2019-03-19T04:05:32.154Z,0
2019-03-19T04:06:42.092Z,0
2019-03-19T04:07:52.011Z,0
2019-03-19T04:09:01.966Z,0
2019-03-19T04:10:11.920Z,0
2019-03-19T04:11:21.949Z,0
2019-03-19T04:12:31.880Z,0
2019-03-19T04:13:41.817Z,0
2019-03-19T04:14:54.003Z,0
2019-03-19T04:16:03.960Z,0
2019-03-19T04:17:13.940Z,0
2019-03-19T04:18:23.892Z,0
2019-03-19T04:19:33.834Z,0
2019-03-19T04:20:43.840Z,0
2019-03-19T04:21:53.789Z,0
2019-03-19T04:23:03.716Z,0
2019-03-19T04:24:13.705Z,0
2019-03-19T04:25:23.388Z,0
2019-03-19T04:26:32.828Z,0
2019-03-19T04:27:45.388Z,0
2019-03-19T04:28:55.207Z,0
2019-03-19T04:30:05.302Z,0
2019-03-19T04:31:15.218Z,0
2019-03-19T04:32:25.155Z,0
2019-03-19T04:33:35.077Z,0
2019-03-19T04:34:45.060Z,0
2019-03-19T04:35:54.991Z,0
2019-03-19T04:37:04.918Z,0
2019-03-19T04:38:14.836Z,0
2019-03-19T04:39:24.837Z,0
2019-03-19T04:40:34.866Z,0
2019-03-19T04:41:44.825Z,0
2019-03-19T04:42:54.746Z,0
2019-03-19T04:44:04.671Z,4
2019-03-19T04:45:14.335Z,0
2019-03-19T04:46:24.262Z,0
2019-03-19T04:47:34.180Z,4
2019-03-19T04:48:44.098Z,4
2019-03-19T04:49:54.070Z,4
2019-03-19T04:51:04.000Z,4
2019-03-19T04:52:13.985Z,4
2019-03-19T04:53:26.611Z,4
2019-03-19T04:54:36.533Z,8
2019-03-19T04:55:46.450Z,12
2019-03-19T04:56:56.366Z,12
2019-03-19T04:58:06.385Z,12
2019-03-19T04:59:16.302Z,16
2019-03-19T05:00:26.238Z,20
2019-03-19T05:01:36.186Z,28
2019-03-19T05:02:45.919Z,28
2019-03-19T05:03:55.844Z,36
2019-03-19T05:05:05.760Z,40
2019-03-19T05:06:15.698Z,48
2019-03-19T05:07:25.624Z,56
2019-03-19T05:08:35.546Z,72
2019-03-19T05:09:45.568Z,80
2019-03-19T05:10:55.488Z,92
2019-03-19T05:12:05.431Z,108
2019-03-19T05:13:15.346Z,124
2019-03-19T05:14:25.279Z,136
2019-03-19T05:15:35.200Z,160
2019-03-19T05:16:45.123Z,176
2019-03-19T05:17:55.036Z,200
2019-03-19T05:19:04.971Z,224
2019-03-19T05:20:14.897Z,248
2019-03-19T05:21:24.847Z,280
2019-03-19T05:22:34.512Z,308
2019-03-19T05:23:44.422Z,336
2019-03-19T05:24:54.337Z,368
2019-03-19T05:26:04.271Z,404
2019-03-19T05:27:16.454Z,440
2019-03-19T05:28:26.365Z,476
2019-03-19T05:29:36.051Z,520
2019-03-19T05:30:45.968Z,560
2019-03-19T05:31:55.899Z,596
2019-03-19T05:33:05.920Z,636
2019-03-19T05:34:15.858Z,676
2019-03-19T05:35:25.783Z,720
2019-03-19T05:36:35.696Z,768
2019-03-19T05:37:45.632Z,816
2019-03-19T05:38:55.548Z,864
2019-03-19T05:40:05.505Z,920
2019-03-19T05:41:16.597Z,976
2019-03-19T05:42:26.734Z,1036
2019-03-19T05:43:36.703Z,1088
2019-03-19T05:44:46.717Z,1136
2019-03-19T05:45:56.376Z,1192
2019-03-19T05:47:06.290Z,1240
2019-03-19T05:48:16.203Z,1292
2019-03-19T05:49:26.120Z,1340
2019-03-19T05:50:35.786Z,1392
2019-03-19T05:51:45.447Z,1440
2019-03-19T05:52:55.714Z,1492
2019-03-19T05:54:05.659Z,1544
2019-03-19T05:55:15.600Z,1592
2019-03-19T05:56:25.521Z,1644
2019-03-19T05:57:35.457Z,1692
2019-03-19T05:58:56.362Z,1748
2019-03-19T06:00:06.306Z,1796
2019-03-19T06:01:16.229Z,1840
2019-03-19T06:02:26.645Z,1888
2019-03-19T06:03:36.567Z,1936
2019-03-19T06:04:46.490Z,1980
2019-03-19T06:05:56.154Z,2024
2019-03-19T06:07:06.079Z,2068
2019-03-19T06:08:16.094Z,2116
2019-03-19T06:09:26.005Z,2160
2019-03-19T06:10:35.925Z,2200
2019-03-19T06:11:45.918Z,2248
2019-03-19T06:12:55.846Z,2284
2019-03-19T06:14:05.865Z,2332
2019-03-19T06:15:15.803Z,2368
2019-03-19T06:16:25.723Z,2412
2019-03-19T06:17:35.638Z,2452
2019-03-19T06:18:45.579Z,2496
2019-03-19T06:19:55.614Z,2532
2019-03-19T06:21:05.591Z,2572
2019-03-19T06:22:15.509Z,2612
2019-03-19T06:23:25.422Z,2648
2019-03-19T06:24:35.335Z,2688
2019-03-19T06:25:45.364Z,2724
2019-03-19T06:26:55.291Z,2764
2019-03-19T06:28:08.031Z,2804
2019-03-19T06:29:17.947Z,2836
2019-03-19T06:30:27.872Z,2876
2019-03-19T06:31:37.889Z,2912
2019-03-19T06:32:47.807Z,2944
2019-03-19T06:33:57.724Z,2980
2019-03-19T06:35:07.644Z,3016
2019-03-19T06:36:17.564Z,3048
2019-03-19T06:37:27.580Z,3080
2019-03-19T06:38:37.493Z,3112
2019-03-19T06:39:47.414Z,3148
2019-03-19T06:40:58.496Z,3180
2019-03-19T06:42:08.422Z,3216
2019-03-19T06:43:18.435Z,3240
2019-03-19T06:44:28.359Z,3280
2019-03-19T06:45:38.270Z,3308
2019-03-19T06:46:48.181Z,3340
2019-03-19T06:47:58.101Z,3372
2019-03-19T06:49:08.018Z,3400
2019-03-19T06:50:17.937Z,3432
2019-03-19T06:51:27.920Z,3464
2019-03-19T06:52:37.833Z,3488
2019-03-19T06:53:47.783Z,3520
2019-03-19T06:54:57.757Z,3548
2019-03-19T06:56:07.671Z,3580
2019-03-19T06:57:17.592Z,3604
2019-03-19T06:58:27.509Z,3636
2019-03-19T06:59:37.428Z,3664
2019-03-19T07:00:47.345Z,3692
2019-03-19T07:01:57.267Z,3716
2019-03-19T07:03:07.188Z,3752
2019-03-19T07:04:17.104Z,3776
2019-03-19T07:05:27.042Z,3800
2019-03-19T07:06:36.956Z,3832
2019-03-19T07:07:46.870Z,3856
2019-03-19T07:08:56.783Z,3884
2019-03-19T07:10:06.712Z,3908
2019-03-19T07:11:16.633Z,3936
2019-03-19T07:12:26.650Z,3956
2019-03-19T07:13:36.368Z,3988
2019-03-19T07:14:46.043Z,4012
2019-03-19T07:15:55.985Z,4036
2019-03-19T07:17:05.714Z,4064
2019-03-19T07:18:15.692Z,4084
2019-03-19T07:19:25.417Z,4108
2019-03-19T07:20:35.335Z,4132
2019-03-19T07:21:45.260Z,4156
2019-03-19T07:22:55.181Z,4180
2019-03-19T07:24:05.108Z,4208
2019-03-19T07:25:15.054Z,4232
2019-03-19T07:26:24.972Z,4256
2019-03-19T07:27:34.895Z,4280
2019-03-19T07:28:44.826Z,4304
2019-03-19T07:29:54.849Z,4328
2019-03-19T07:31:04.776Z,4352
2019-03-19T07:32:14.689Z,4376
2019-03-19T07:33:24.620Z,4396
2019-03-19T07:34:34.541Z,4420
2019-03-19T07:35:44.482Z,4444
2019-03-19T07:36:54.400Z,4468
2019-03-19T07:38:04.320Z,4488
2019-03-19T07:39:14.244Z,4508
2019-03-19T07:40:24.169Z,4528
2019-03-19T07:41:34.288Z,4552
2019-03-19T07:42:44.210Z,4568
2019-03-19T07:43:53.873Z,4592
2019-03-19T07:45:03.811Z,4608
2019-03-19T07:46:13.746Z,4632
2019-03-19T07:47:23.727Z,4648
2019-03-19T07:48:33.651Z,4668
2019-03-19T07:49:43.580Z,4688
2019-03-19T07:50:53.505Z,4708
2019-03-19T07:52:03.211Z,4732
2019-03-19T07:53:13.146Z,4752
2019-03-19T07:54:23.061Z,4772
2019-03-19T07:55:32.976Z,4792
2019-03-19T07:56:42.907Z,4812
2019-03-19T07:57:52.841Z,4832
2019-03-19T07:59:02.767Z,4852
2019-03-19T08:00:12.684Z,4876
2019-03-19T08:01:24.549Z,4900
2019-03-19T08:02:34.678Z,4924
2019-03-19T08:03:44.591Z,4952
2019-03-19T08:04:54.556Z,4968
2019-03-19T08:06:04.487Z,4996
2019-03-19T08:07:14.404Z,5028
2019-03-19T08:08:24.322Z,5052
2019-03-19T08:09:34.268Z,5076
2019-03-19T08:10:44.293Z,5104
2019-03-19T08:11:54.225Z,5132
2019-03-19T08:13:04.139Z,5160
2019-03-19T08:14:14.063Z,5184
2019-03-19T08:15:23.993Z,5216
2019-03-19T08:16:34.668Z,5244
2019-03-19T08:17:45.562Z,5280
2019-03-19T08:18:55.492Z,5304
2019-03-19T08:20:05.425Z,5340
2019-03-19T08:21:15.344Z,5380
2019-03-19T08:22:25.387Z,5416
2019-03-19T08:23:35.303Z,5460
2019-03-19T08:24:45.227Z,5500
2019-03-19T08:25:55.147Z,5540
2019-03-19T08:27:05.064Z,5588
2019-03-19T08:28:14.752Z,5628
2019-03-19T08:29:24.678Z,5680
2019-03-19T08:30:34.605Z,5724
2019-03-19T08:31:44.521Z,5768
2019-03-19T08:32:54.458Z,5812
2019-03-19T08:34:04.378Z,5860
2019-03-19T08:35:14.297Z,5896
2019-03-19T08:36:24.213Z,5940
2019-03-19T08:37:33.887Z,5980
2019-03-19T08:38:43.813Z,6024
2019-03-19T08:39:53.782Z,6072
2019-03-19T08:41:04.442Z,6112
2019-03-19T08:42:14.365Z,6156
2019-03-19T08:43:25.233Z,6200
2019-03-19T08:44:35.385Z,6248
2019-03-19T08:45:45.309Z,6288
2019-03-19T08:46:55.236Z,6332
2019-03-19T08:48:05.191Z,6376
2019-03-19T08:49:14.853Z,6416
2019-03-19T08:50:24.790Z,6460
2019-03-19T08:51:34.714Z,6504
2019-03-19T08:52:44.380Z,6540
2019-03-19T08:53:54.298Z,6584
2019-03-19T08:55:04.215Z,6624
2019-03-19T08:56:14.132Z,6664
2019-03-19T08:57:24.099Z,6704
2019-03-19T08:58:34.016Z,6744
2019-03-19T08:59:43.966Z,6788
2019-03-19T09:00:53.879Z,6828
2019-03-19T09:02:03.797Z,6872
2019-03-19T09:03:13.724Z,6908
2019-03-19T09:04:23.643Z,6948
2019-03-19T09:05:33.558Z,6984
2019-03-19T09:06:43.601Z,7020
2019-03-19T09:07:53.532Z,7060
2019-03-19T09:09:03.465Z,7092
2019-03-19T09:10:13.381Z,7128
2019-03-19T09:11:23.300Z,7164
2019-03-19T09:12:33.222Z,7192
2019-03-19T09:13:43.157Z,7228
2019-03-19T09:14:53.127Z,7260
2019-03-19T09:16:03.067Z,7288
2019-03-19T09:17:13.004Z,7320
2019-03-19T09:18:23.394Z,7348
2019-03-19T09:19:33.311Z,7380
2019-03-19T09:20:43.228Z,7412
2019-03-19T09:21:53.156Z,7436
2019-03-19T09:23:03.085Z,7464
2019-03-19T09:24:13.008Z,7484
2019-03-19T09:25:22.694Z,7508
2019-03-19T09:26:32.620Z,7540
2019-03-19T09:27:42.547Z,7568
2019-03-19T09:28:52.479Z,7608
2019-03-19T09:30:02.403Z,7632
2019-03-19T09:31:12.338Z,7660
2019-03-19T09:32:22.311Z,7692
2019-03-19T09:33:32.237Z,7720
2019-03-19T09:34:42.153Z,7760
2019-03-19T09:35:52.077Z,7792
2019-03-19T09:37:04.909Z,7832
2019-03-19T09:38:14.828Z,7864
2019-03-19T09:39:24.747Z,7896
2019-03-19T09:40:34.674Z,7932
2019-03-19T09:41:44.594Z,7976
2019-03-19T09:42:54.513Z,8008
2019-03-19T09:44:04.445Z,8052
2019-03-19T09:45:14.383Z,8088
2019-03-19T09:46:25.814Z,8132
2019-03-19T09:47:35.733Z,8172
2019-03-19T09:48:47.726Z,8212
2019-03-19T09:49:57.863Z,8244
2019-03-19T09:51:07.954Z,8288
2019-03-19T09:52:17.624Z,8328
2019-03-19T09:53:27.541Z,8368
2019-03-19T09:54:39.475Z,8408
2019-03-19T09:55:49.180Z,8452
2019-03-19T09:56:59.097Z,8492
2019-03-19T09:58:09.031Z,8532
2019-03-19T09:59:29.162Z,8580
2019-03-19T10:00:39.087Z,8616
2019-03-19T10:01:49.009Z,8660
2019-03-19T10:02:58.938Z,8700
2019-03-19T10:04:08.864Z,8740
2019-03-19T10:05:18.783Z,8772
2019-03-19T10:06:28.706Z,8808
2019-03-19T10:07:38.679Z,8852
2019-03-19T10:08:48.613Z,8900
2019-03-19T10:09:58.563Z,8944
2019-03-19T10:11:08.493Z,8984
2019-03-19T10:12:18.413Z,9028
2019-03-19T10:13:28.470Z,9072
2019-03-19T10:14:38.398Z,9116
2019-03-19T10:15:48.334Z,9156
2019-03-19T10:16:58.261Z,9196
2019-03-19T10:18:08.215Z,9236
2019-03-19T10:19:18.246Z,9276
2019-03-19T10:20:28.194Z,9312
2019-03-19T10:21:38.122Z,9352
2019-03-19T10:22:48.055Z,9392
2019-03-19T10:23:57.980Z,9428
2019-03-19T10:25:07.954Z,9464
2019-03-19T10:26:17.882Z,9508
2019-03-19T10:27:27.803Z,9544
2019-03-19T10:28:37.474Z,9580
2019-03-19T10:29:47.407Z,9616
2019-03-19T10:30:57.339Z,9644
2019-03-19T10:32:07.305Z,9676
2019-03-19T10:33:18.554Z,9708
2019-03-19T10:34:28.490Z,9740
2019-03-19T10:35:38.419Z,9772
2019-03-19T10:36:48.348Z,9808
2019-03-19T10:37:58.280Z,9828
2019-03-19T10:39:09.119Z,9864
2019-03-19T10:40:18.950Z,9884
2019-03-19T10:41:28.883Z,9912
2019-03-19T10:42:38.861Z,9940
2019-03-19T10:43:48.548Z,9968
2019-03-19T10:44:58.468Z,9992
2019-03-19T10:46:08.391Z,10008
2019-03-19T10:47:18.314Z,10020
2019-03-19T10:48:28.237Z,10040
2019-03-19T10:49:38.173Z,10048
2019-03-19T10:50:48.137Z,10068
2019-03-19T10:51:58.063Z,10084
2019-03-19T10:53:07.989Z,10100
2019-03-19T10:54:17.914Z,10108
2019-03-19T10:55:27.595Z,10120
2019-03-19T10:56:38.852Z,10128
2019-03-19T10:57:48.909Z,10140
2019-03-19T10:58:58.836Z,10156
2019-03-19T11:00:08.810Z,10172
2019-03-19T11:01:18.734Z,10192
2019-03-19T11:02:28.669Z,10228
2019-03-19T11:03:38.593Z,10256
2019-03-19T11:04:48.517Z,10272
2019-03-19T11:05:58.447Z,10288
2019-03-19T11:07:08.375Z,10308
2019-03-19T11:08:18.303Z,10352
2019-03-19T11:09:28.246Z,10404
2019-03-19T11:10:38.185Z,10500
2019-03-19T11:11:47.863Z,11032
2019-03-19T11:12:57.876Z,27360
2019-03-19T11:14:07.822Z,73728
2019-03-19T11:15:17.756Z,79424
2019-03-19T11:16:27.695Z,75136
2019-03-19T11:17:37.682Z,73472
2019-03-19T11:18:47.611Z,70720
2019-03-19T11:19:57.543Z,64768
2019-03-19T11:21:07.548Z,59328
2019-03-19T11:22:17.226Z,59936
2019-03-19T11:23:26.912Z,56704
2019-03-19T11:24:36.843Z,56384
2019-03-19T11:25:56.884Z,57536
2019-03-19T11:27:06.820Z,60320
2019-03-19T11:28:18.676Z,60704
2019-03-19T11:29:28.628Z,58496
2019-03-19T11:30:38.650Z,60512
2019-03-19T11:31:48.588Z,60512
2019-03-19T11:32:58.535Z,61088
2019-03-19T11:34:08.528Z,65056
2019-03-19T11:35:18.473Z,62336
2019-03-19T11:36:28.407Z,57216
2019-03-19T11:37:38.356Z,59328
2019-03-19T11:38:48.336Z,57440
2019-03-19T11:39:58.317Z,57120
2019-03-19T11:41:09.734Z,55968
2019-03-19T11:42:19.672Z,58848
2019-03-19T11:43:29.356Z,58240
2019-03-19T11:44:39.290Z,58464
2019-03-19T11:45:50.561Z,58336
2019-03-19T11:47:00.853Z,58304
2019-03-19T11:48:10.811Z,61280
2019-03-19T11:49:20.859Z,58912
2019-03-19T11:50:33.125Z,59104
2019-03-19T11:51:43.344Z,59584
2019-03-19T11:52:53.279Z,57888
2019-03-19T11:54:03.239Z,57760
2019-03-19T11:55:13.175Z,58112
2019-03-19T11:56:23.121Z,55328
2019-03-19T11:57:33.059Z,55872
2019-03-19T11:58:43.000Z,54560
2019-03-19T11:59:52.942Z,55552
2019-03-19T12:01:02.902Z,57472
2019-03-19T12:02:12.847Z,57440
2019-03-19T12:03:33.520Z,54208
2019-03-19T12:04:43.465Z,56576
2019-03-19T12:05:53.404Z,53856
2019-03-19T12:07:03.354Z,57088
2019-03-19T12:08:13.299Z,57088
2019-03-19T12:09:23.289Z,52960
2019-03-19T12:10:33.235Z,52160
2019-03-19T12:11:43.176Z,52960
2019-03-19T12:12:53.117Z,55872
2019-03-19T12:14:03.072Z,58464
2019-03-19T12:15:13.012Z,62176
2019-03-19T12:16:22.972Z,61536
2019-03-19T12:17:32.915Z,58112
2019-03-19T12:18:42.858Z,51296
2019-03-19T12:19:52.799Z,48576
2019-03-19T12:21:02.752Z,46560
2019-03-19T12:22:12.690Z,43136
2019-03-19T12:23:22.626Z,37952
2019-03-19T12:24:35.135Z,38144
2019-03-19T12:25:45.090Z,35168
2019-03-19T12:26:55.079Z,35168
2019-03-19T12:28:05.017Z,35424
2019-03-19T12:29:14.955Z,34208
2019-03-19T12:30:31.287Z,34016
2019-03-19T12:31:40.973Z,33376
2019-03-19T12:32:50.919Z,32608
2019-03-19T12:34:00.857Z,31104
2019-03-19T12:35:10.802Z,30880
2019-03-19T12:36:20.750Z,31200
2019-03-19T12:37:30.694Z,30784
2019-03-19T12:38:40.630Z,30208
2019-03-19T12:39:50.565Z,29472
2019-03-19T12:41:00.499Z,29280
2019-03-19T12:42:10.447Z,29056
2019-03-19T12:43:20.133Z,29728
2019-03-19T12:44:30.132Z,29376
2019-03-19T12:45:40.082Z,29312
2019-03-19T12:46:50.025Z,29536
2019-03-19T12:47:59.714Z,29440
2019-03-19T12:49:09.658Z,29056
2019-03-19T12:50:19.701Z,28768
2019-03-19T12:51:29.646Z,29120
2019-03-19T12:52:39.586Z,29408
2019-03-19T12:53:49.515Z,29504
2019-03-19T12:54:59.446Z,29216
2019-03-19T12:56:09.387Z,29216
2019-03-19T12:57:19.321Z,29664
2019-03-19T12:58:29.261Z,29952
2019-03-19T12:59:39.197Z,30560
2019-03-19T13:00:50.363Z,30752
2019-03-19T13:02:00.415Z,30976
2019-03-19T13:03:10.465Z,30816
2019-03-19T13:04:20.402Z,31296
2019-03-19T13:05:30.346Z,30944
2019-03-19T13:06:40.285Z,31232
2019-03-19T13:07:49.969Z,31744
2019-03-19T13:08:59.899Z,30272
2019-03-19T13:10:09.643Z,29280
2019-03-19T13:11:19.579Z,32000
2019-03-19T13:12:29.514Z,31776
2019-03-19T13:13:40.950Z,29792
2019-03-19T13:14:50.986Z,27744
2019-03-19T13:16:00.929Z,29504
2019-03-19T13:17:10.875Z,30976
2019-03-19T13:18:20.822Z,26112
2019-03-19T13:19:30.806Z,24192
2019-03-19T13:20:40.738Z,21312
2019-03-19T13:21:50.670Z,24064
2019-03-19T13:23:00.604Z,24288
2019-03-19T13:24:10.545Z,32256
2019-03-19T13:25:20.477Z,31808
2019-03-19T13:26:30.410Z,24928
2019-03-19T13:27:40.341Z,26496
2019-03-19T13:28:51.264Z,22976
2019-03-19T13:30:01.211Z,21504
2019-03-19T13:31:11.144Z,23232
2019-03-19T13:32:21.085Z,19296
2019-03-19T13:33:31.015Z,29504
2019-03-19T13:34:40.943Z,43104
2019-03-19T13:35:50.875Z,30048
2019-03-19T13:37:03.359Z,24000
2019-03-19T13:38:15.187Z,22528
2019-03-19T13:39:24.867Z,15736
2019-03-19T13:40:34.803Z,21984
2019-03-19T13:41:44.752Z,20992
2019-03-19T13:42:54.737Z,20672
2019-03-19T13:44:04.427Z,29952
2019-03-19T13:45:14.354Z,25568
2019-03-19T13:46:24.288Z,17664
2019-03-19T13:47:34.220Z,16208
2019-03-19T13:48:44.296Z,27072
2019-03-19T13:49:54.243Z,24032
2019-03-19T13:51:04.169Z,23648
2019-03-19T13:52:14.096Z,26816
2019-03-19T13:53:24.015Z,26080
2019-03-19T13:54:33.996Z,25440
2019-03-19T13:55:43.930Z,20256
2019-03-19T13:56:53.858Z,14924
2019-03-19T13:58:03.793Z,18368
2019-03-19T13:59:13.747Z,23168
2019-03-19T14:00:23.736Z,20288
2019-03-19T14:01:33.697Z,23264
2019-03-19T14:02:43.652Z,28192
2019-03-19T14:03:53.587Z,27072
2019-03-19T14:05:03.524Z,20896
2019-03-19T14:06:13.470Z,15044
2019-03-19T14:07:23.399Z,16004
2019-03-19T14:08:33.326Z,15396
2019-03-19T14:09:43.254Z,20096
2019-03-19T14:10:54.238Z,20736
2019-03-19T14:12:04.395Z,14656
2019-03-19T14:13:14.321Z,24672
2019-03-19T14:14:24.246Z,34080
2019-03-19T14:15:34.188Z,26112
2019-03-19T14:16:44.172Z,30176
2019-03-19T14:17:54.356Z,31808
2019-03-19T14:19:04.280Z,28672
2019-03-19T14:20:14.289Z,23648
2019-03-19T14:21:24.239Z,25568
2019-03-19T14:22:34.168Z,24448
2019-03-19T14:23:44.247Z,20608
2019-03-19T14:24:54.182Z,21152
2019-03-19T14:26:04.105Z,31776
2019-03-19T14:27:14.034Z,35200
2019-03-19T14:28:24.618Z,31168
2019-03-19T14:29:34.593Z,33088
2019-03-19T14:30:44.534Z,32096
2019-03-19T14:31:54.464Z,36448
2019-03-19T14:33:04.404Z,31328
2019-03-19T14:34:14.329Z,21856
2019-03-19T14:35:24.308Z,21184
2019-03-19T14:36:44.843Z,29568
2019-03-19T14:37:54.768Z,33728
2019-03-19T14:39:07.223Z,41888
2019-03-19T14:40:16.943Z,52896
2019-03-19T14:41:26.882Z,56256
2019-03-19T14:42:36.807Z,57920
2019-03-19T14:43:46.744Z,56128
2019-03-19T14:44:56.683Z,56416
2019-03-19T14:46:06.661Z,56704
2019-03-19T14:47:16.587Z,54048
2019-03-19T14:48:26.546Z,54464
2019-03-19T14:49:46.220Z,52640
2019-03-19T14:50:57.611Z,48480
2019-03-19T14:52:07.559Z,54048
2019-03-19T14:53:17.491Z,55008
2019-03-19T14:54:27.424Z,51712
2019-03-19T14:55:37.356Z,51904
2019-03-19T14:56:47.286Z,54976
2019-03-19T14:57:58.261Z,56096
2019-03-19T14:59:08.196Z,55328
2019-03-19T15:00:18.141Z,50112
2019-03-19T15:01:28.079Z,29056
2019-03-19T15:02:38.022Z,39200
2019-03-19T15:03:48.007Z,51392
2019-03-19T15:04:57.934Z,51584
2019-03-19T15:06:07.953Z,52832
2019-03-19T15:07:17.893Z,52640
2019-03-19T15:08:30.315Z,52032
2019-03-19T15:09:40.247Z,51168
2019-03-19T15:10:50.190Z,52352
2019-03-19T15:12:00.130Z,52928
2019-03-19T15:13:10.062Z,51840
2019-03-19T15:14:20.006Z,49952
2019-03-19T15:15:29.952Z,49344
2019-03-19T15:16:39.882Z,49664
2019-03-19T15:17:49.823Z,49696
2019-03-19T15:18:59.758Z,46976
2019-03-19T15:20:09.695Z,46368
2019-03-19T15:21:19.680Z,43616
2019-03-19T15:22:39.722Z,36480
2019-03-19T15:23:49.649Z,34208
2019-03-19T15:24:59.594Z,39616
2019-03-19T15:26:09.534Z,35200
2019-03-19T15:27:19.460Z,37632
2019-03-19T15:28:29.135Z,38720
2019-03-19T15:29:39.066Z,41152
2019-03-19T15:30:48.994Z,44256
2019-03-19T15:31:58.922Z,43072
2019-03-19T15:33:11.192Z,42080
2019-03-19T15:34:21.124Z,39936
2019-03-19T15:35:31.071Z,39072
2019-03-19T15:36:41.012Z,36896
2019-03-19T15:37:50.943Z,35296
2019-03-19T15:39:00.923Z,33408
2019-03-19T15:40:10.858Z,32992
2019-03-19T15:41:20.787Z,29824
2019-03-19T15:42:30.720Z,27520
2019-03-19T15:43:40.657Z,23296
2019-03-19T15:44:50.588Z,19936
2019-03-19T15:46:00.535Z,17376
2019-03-19T15:47:10.473Z,13716
2019-03-19T15:49:59.684Z,10336
2019-03-19T15:51:09.614Z,9540
2019-03-19T15:52:19.540Z,9752
2019-03-19T15:53:29.231Z,11000
2019-03-19T15:54:39.156Z,13476
2019-03-19T15:55:49.148Z,13752